Terminal Aerodrome Forecast
Issued by NWS Mt. Holly, NJ

Home | Current Version | Previous Version | Text Only | Print | Product List | Glossary On
Versions: 1 2 3 4 5 6 7 8 9 10 11 12 13 14 15 16 17 18 19 20 21 22 23 24 25 26 27 28 29
000
FTUS41 KPHI 310544
TAFRDG
TAF
KRDG 310544Z 3106/0106 VRB02KT P6SM SCT025 OVC040
     FM310800 VRB02KT 3SM BR OVC010
     FM311000 00000KT 3SM BR OVC007
     FM311400 VRB02KT 4SM BR OVC015
     FM311600 26004KT P6SM BKN035
     FM010000 VRB02KT 6SM HZ BKN250 PROB30 0100/0102 4SM TS BKN050CB
     FM010500 00000KT 4SM BR BKN250=

USA.gov is the U.S. government's official web portal to all federal, state and local government web resources and services.